Windom, Minnesota
Current Conditions -  °F | °C
As of 12:13 PM on Thursday 23 Oct 2014 (Local Time) from KMWM Reporting Station
Clear Clear  
Wind Chill: 64°   Ceiling: Unl
Heat Index: 64°   Visibility: 10mi
Dew Point: 52°   Wind: 9mph
Humidity: 64%   Direction: 240°WSW
Pressure: 30.02"   Gusts: NA
Location:  43.87°N, 95.12°W
Report Text: KMWM 231713Z AUTO 24008KT 10SM CLR 18/11 A3002 RMK AO2
Loading
Personal Weather Stations






























Interactive Weather Map
Tropical Storm Tracking
New forecast layout! Learn more

10-Day Weather Forecast

Advertisements
Track Severe Weather on mobile